PUUANAHULU HI US current weather conditions

sailwx.info

Wind from 311 at 7 knots gusting 14

Air temperature 23.3° C
Dewpoint 16.6° C

Last reported at 2017-Jan-25 00:37 UTC.
Time now 2017-Jan-25 01:31 UTC

Location: N 19°50' W 155°46'.
View on Google Maps.

See reports from other nearby stations

  
Tides and Currents Weather Stations Pressure Air Temp Water Temp Dewpoint Dewpoint Depression Visibility Wind Speed Wind Dir Waves Ship Positions
date/time (UTC)wind fromknots sea level pressurealtimeterstation pressurevisibilityair tempwater tempwave heightnotes
2017-Jan-25 00:37 311 7 gusting 14 23.3
2017-Jan-24 23:37 313 6 gusting 13 22.2
2017-Jan-24 22:37 346 6 gusting 14 22.8
2017-Jan-24 21:37 297 6 gusting 12 22.8
2017-Jan-24 20:37 267 6 gusting 11 22.2
2017-Jan-24 19:37 249 6 gusting 8 22.2
2017-Jan-24 18:37 165 5 gusting 9 20.0
2017-Jan-24 17:37 132 6 gusting 10 15.0
2017-Jan-24 16:37 127 6 gusting 11 14.4
2017-Jan-24 15:37 135 6 gusting 9 13.9
2017-Jan-24 14:37 140 5 gusting 8 14.4
2017-Jan-24 13:37 134 6 gusting 9 14.4
2017-Jan-24 12:37 130 6 gusting 8 14.4
2017-Jan-24 11:37 129 3 gusting 4 16.1
2017-Jan-24 10:37 121 1 gusting 4 17.2
2017-Jan-24 09:37 157 2 gusting 5 17.2
2017-Jan-24 08:37 181 3 gusting 4 16.1
2017-Jan-24 07:37 133 2 gusting 4 17.2
2017-Jan-24 06:37 126 1 gusting 3 18.3
2017-Jan-24 05:37 041 2 gusting 7 18.3
2017-Jan-24 04:37 014 5 gusting 8 19.4
2017-Jan-24 03:37 315 4 gusting 8 20.6
2017-Jan-24 02:37 316 6 gusting 11 21.7
2017-Jan-24 01:37 289 4 gusting 10 21.7
2017-Jan-24 00:37 326 5 gusting 12 22.8
2017-Jan-23 23:37 296 6 gusting 14 23.3
2017-Jan-23 22:37 292 6 gusting 12 23.3
2017-Jan-23 21:37 330 4 gusting 9 23.3
2017-Jan-23 20:37 356 4 gusting 8 22.8
2017-Jan-23 19:37 011 2 gusting 6 21.7
2017-Jan-23 18:37 100 4 gusting 8 18.9
2017-Jan-23 17:37 120 6 gusting 9 14.4
2017-Jan-23 16:37 120 6 gusting 8 13.3
2017-Jan-23 15:37 125 6 gusting 7 13.3
2017-Jan-23 14:37 122 6 gusting 6 13.9
2017-Jan-23 13:37 115 4 gusting 6 15.6
2017-Jan-23 12:37 120 3 gusting 6 15.0
2017-Jan-23 11:37 158 2 gusting 6 15.0
2017-Jan-23 10:37 215 3 gusting 6 16.7
2017-Jan-23 09:37 186 6 gusting 9 16.1
2017-Jan-23 08:37 199 4 gusting 9 15.6
2017-Jan-23 07:37 206 1 gusting 10 15.0
2017-Jan-23 06:37 15.6
2017-Jan-23 05:37 074 1 gusting 12 15.6
2017-Jan-23 04:37 037 4 gusting 9 16.1
2017-Jan-23 03:37 015 6 gusting 16 18.9
2017-Jan-23 02:37 016 11 gusting 21 21.1
2017-Jan-23 01:37 021 15 gusting 27 21.7